sensor_id;sensor_type;location;lat;lon;timestamp;P1;durP1;ratioP1;P2;durP2;ratioP2
53269;SDS011;39159;45.634;9.420;2024-03-02T00:00:04;5.30;;;4.00;;
53269;SDS011;39159;45.634;9.420;2024-03-02T00:05:11;6.40;;;4.45;;
53269;SDS011;39159;45.634;9.420;2024-03-02T00:07:37;5.68;;;4.10;;
53269;SDS011;39159;45.634;9.420;2024-03-02T00:10:07;5.28;;;3.83;;
53269;SDS011;39159;45.634;9.420;2024-03-02T00:12:37;4.70;;;3.58;;
53269;SDS011;39159;45.634;9.420;2024-03-02T00:18:02;6.60;;;4.38;;
53269;SDS011;39159;45.634;9.420;2024-03-02T00:20:29;6.20;;;4.60;;
53269;SDS011;39159;45.634;9.420;2024-03-02T00:23:04;7.95;;;4.47;;
53269;SDS011;39159;45.634;9.420;2024-03-02T00:25:38;7.90;;;4.95;;
53269;SDS011;39159;45.634;9.420;2024-03-02T00:28:06;6.75;;;4.85;;
53269;SDS011;39159;45.634;9.420;2024-03-02T00:30:52;8.55;;;4.95;;
53269;SDS011;39159;45.634;9.420;2024-03-02T00:33:22;6.35;;;4.55;;
53269;SDS011;39159;45.634;9.420;2024-03-02T00:35:48;7.88;;;4.90;;
53269;SDS011;39159;45.634;9.420;2024-03-02T00:38:14;5.35;;;4.55;;
53269;SDS011;39159;45.634;9.420;2024-03-02T00:40:40;5.18;;;4.05;;
53269;SDS011;39159;45.634;9.420;2024-03-02T00:43:07;8.85;;;4.00;;
53269;SDS011;39159;45.634;9.420;2024-03-02T00:45:53;5.38;;;4.00;;
53269;SDS011;39159;45.634;9.420;2024-03-02T00:48:18;8.35;;;4.43;;
53269;SDS011;39159;45.634;9.420;2024-03-02T00:50:43;9.45;;;4.88;;
53269;SDS011;39159;45.634;9.420;2024-03-02T00:53:10;9.40;;;5.03;;
53269;SDS011;39159;45.634;9.420;2024-03-02T00:55:36;5.50;;;3.70;;
53269;SDS011;39159;45.634;9.420;2024-03-02T00:58:02;5.15;;;3.53;;
53269;SDS011;39159;45.634;9.420;2024-03-02T01:00:28;3.97;;;2.90;;
53269;SDS011;39159;45.634;9.420;2024-03-02T01:02:53;3.95;;;3.13;;
53269;SDS011;39159;45.634;9.420;2024-03-02T01:05:19;4.20;;;3.17;;
53269;SDS011;39159;45.634;9.420;2024-03-02T01:07:45;4.30;;;3.20;;
53269;SDS011;39159;45.634;9.420;2024-03-02T01:10:10;4.28;;;3.28;;
53269;SDS011;39159;45.634;9.420;2024-03-02T01:12:36;4.13;;;3.20;;
53269;SDS011;39159;45.634;9.420;2024-03-02T01:15:01;4.93;;;3.20;;
53269;SDS011;39159;45.634;9.420;2024-03-02T01:17:30;4.03;;;3.00;;
53269;SDS011;39159;45.634;9.420;2024-03-02T01:19:55;4.75;;;3.20;;
53269;SDS011;39159;45.634;9.420;2024-03-02T01:22:21;3.63;;;2.88;;
53269;SDS011;39159;45.634;9.420;2024-03-02T01:24:50;3.83;;;2.72;;
53269;SDS011;39159;45.634;9.420;2024-03-02T01:27:16;3.50;;;2.80;;
53269;SDS011;39159;45.634;9.420;2024-03-02T01:29:41;3.75;;;2.67;;
53269;SDS011;39159;45.634;9.420;2024-03-02T01:32:06;4.95;;;2.70;;
53269;SDS011;39159;45.634;9.420;2024-03-02T01:34:32;4.95;;;3.30;;
53269;SDS011;39159;45.634;9.420;2024-03-02T01:36:57;4.50;;;2.90;;
53269;SDS011;39159;45.634;9.420;2024-03-02T01:39:22;6.57;;;3.35;;
53269;SDS011;39159;45.634;9.420;2024-03-02T01:41:48;4.50;;;3.67;;
53269;SDS011;39159;45.634;9.420;2024-03-02T01:44:13;4.35;;;3.35;;
53269;SDS011;39159;45.634;9.420;2024-03-02T01:46:38;8.88;;;4.07;;
53269;SDS011;39159;45.634;9.420;2024-03-02T01:49:04;5.40;;;3.30;;
53269;SDS011;39159;45.634;9.420;2024-03-02T01:51:31;5.20;;;3.92;;
53269;SDS011;39159;45.634;9.420;2024-03-02T01:53:56;5.40;;;3.63;;
53269;SDS011;39159;45.634;9.420;2024-03-02T01:56:22;5.50;;;4.03;;
53269;SDS011;39159;45.634;9.420;2024-03-02T01:58:47;6.43;;;4.18;;
53269;SDS011;39159;45.634;9.420;2024-03-02T02:01:13;5.10;;;3.83;;
53269;SDS011;39159;45.634;9.420;2024-03-02T02:03:38;6.18;;;3.20;;
53269;SDS011;39159;45.634;9.420;2024-03-02T02:06:05;5.43;;;4.30;;
53269;SDS011;39159;45.634;9.420;2024-03-02T02:08:32;4.93;;;3.22;;
53269;SDS011;39159;45.634;9.420;2024-03-02T02:10:57;5.20;;;3.40;;
53269;SDS011;39159;45.634;9.420;2024-03-02T02:13:23;6.05;;;3.13;;
53269;SDS011;39159;45.634;9.420;2024-03-02T02:15:49;5.05;;;3.50;;
53269;SDS011;39159;45.634;9.420;2024-03-02T02:18:14;6.22;;;3.80;;
53269;SDS011;39159;45.634;9.420;2024-03-02T02:20:39;5.10;;;3.47;;
53269;SDS011;39159;45.634;9.420;2024-03-02T02:23:05;5.25;;;3.67;;
53269;SDS011;39159;45.634;9.420;2024-03-02T02:25:32;5.65;;;3.70;;
53269;SDS011;39159;45.634;9.420;2024-03-02T02:27:58;4.40;;;3.47;;
53269;SDS011;39159;45.634;9.420;2024-03-02T02:30:24;4.93;;;3.90;;
53269;SDS011;39159;45.634;9.420;2024-03-02T02:32:51;4.30;;;3.00;;
53269;SDS011;39159;45.634;9.420;2024-03-02T02:35:16;4.60;;;3.42;;
53269;SDS011;39159;45.634;9.420;2024-03-02T02:37:42;5.28;;;3.53;;
53269;SDS011;39159;45.634;9.420;2024-03-02T02:40:08;4.68;;;3.45;;
53269;SDS011;39159;45.634;9.420;2024-03-02T02:42:34;4.43;;;3.28;;
53269;SDS011;39159;45.634;9.420;2024-03-02T02:44:59;5.07;;;3.60;;
53269;SDS011;39159;45.634;9.420;2024-03-02T02:47:25;5.57;;;3.38;;
53269;SDS011;39159;45.634;9.420;2024-03-02T02:49:51;5.00;;;4.05;;
53269;SDS011;39159;45.634;9.420;2024-03-02T02:52:16;4.45;;;3.40;;
53269;SDS011;39159;45.634;9.420;2024-03-02T02:54:42;5.93;;;3.53;;
53269;SDS011;39159;45.634;9.420;2024-03-02T02:57:07;5.40;;;3.70;;
53269;SDS011;39159;45.634;9.420;2024-03-02T02:59:33;5.13;;;3.30;;
53269;SDS011;39159;45.634;9.420;2024-03-02T03:02:00;5.07;;;3.67;;
53269;SDS011;39159;45.634;9.420;2024-03-02T03:04:26;4.93;;;3.58;;
53269;SDS011;39159;45.634;9.420;2024-03-02T03:06:51;4.45;;;3.28;;
53269;SDS011;39159;45.634;9.420;2024-03-02T03:09:16;4.47;;;3.47;;
53269;SDS011;39159;45.634;9.420;2024-03-02T03:11:42;4.63;;;3.38;;
53269;SDS011;39159;45.634;9.420;2024-03-02T03:14:07;6.00;;;3.72;;
53269;SDS011;39159;45.634;9.420;2024-03-02T03:16:32;6.25;;;3.70;;
53269;SDS011;39159;45.634;9.420;2024-03-02T03:18:58;5.78;;;3.90;;
53269;SDS011;39159;45.634;9.420;2024-03-02T03:21:23;7.40;;;3.75;;
53269;SDS011;39159;45.634;9.420;2024-03-02T03:23:48;6.07;;;3.35;;
53269;SDS011;39159;45.634;9.420;2024-03-02T03:26:14;5.68;;;3.95;;
53269;SDS011;39159;45.634;9.420;2024-03-02T03:28:40;4.85;;;3.60;;
53269;SDS011;39159;45.634;9.420;2024-03-02T03:31:05;5.68;;;3.80;;
53269;SDS011;39159;45.634;9.420;2024-03-02T03:33:31;7.93;;;3.67;;
53269;SDS011;39159;45.634;9.420;2024-03-02T03:35:56;5.80;;;3.90;;
53269;SDS011;39159;45.634;9.420;2024-03-02T03:38:21;4.13;;;3.10;;
53269;SDS011;39159;45.634;9.420;2024-03-02T03:40:47;5.57;;;3.80;;
53269;SDS011;39159;45.634;9.420;2024-03-02T03:43:12;8.90;;;4.68;;
53269;SDS011;39159;45.634;9.420;2024-03-02T03:45:38;5.75;;;4.15;;
53269;SDS011;39159;45.634;9.420;2024-03-02T03:48:03;9.48;;;4.30;;
53269;SDS011;39159;45.634;9.420;2024-03-02T03:50:29;7.07;;;4.90;;
53269;SDS011;39159;45.634;9.420;2024-03-02T03:52:54;6.53;;;4.15;;
53269;SDS011;39159;45.634;9.420;2024-03-02T03:55:19;5.97;;;4.15;;
53269;SDS011;39159;45.634;9.420;2024-03-02T03:57:45;6.13;;;4.35;;
53269;SDS011;39159;45.634;9.420;2024-03-02T04:00:10;6.07;;;4.32;;
53269;SDS011;39159;45.634;9.420;2024-03-02T04:02:37;6.70;;;4.25;;
53269;SDS011;39159;45.634;9.420;2024-03-02T04:05:02;5.95;;;3.78;;
53269;SDS011;39159;45.634;9.420;2024-03-02T04:07:30;6.57;;;3.97;;
53269;SDS011;39159;45.634;9.420;2024-03-02T04:09:55;5.60;;;4.57;;
53269;SDS011;39159;45.634;9.420;2024-03-02T04:12:21;7.65;;;4.47;;
53269;SDS011;39159;45.634;9.420;2024-03-02T04:14:46;6.13;;;4.80;;
53269;SDS011;39159;45.634;9.420;2024-03-02T04:17:12;7.47;;;4.80;;
53269;SDS011;39159;45.634;9.420;2024-03-02T04:19:38;6.25;;;4.63;;
53269;SDS011;39159;45.634;9.420;2024-03-02T04:22:03;6.97;;;4.40;;
53269;SDS011;39159;45.634;9.420;2024-03-02T04:24:29;5.75;;;4.28;;
53269;SDS011;39159;45.634;9.420;2024-03-02T04:26:55;6.25;;;4.53;;
53269;SDS011;39159;45.634;9.420;2024-03-02T04:29:20;5.22;;;4.07;;
53269;SDS011;39159;45.634;9.420;2024-03-02T04:31:45;7.78;;;4.20;;
53269;SDS011;39159;45.634;9.420;2024-03-02T04:34:11;7.13;;;4.65;;
53269;SDS011;39159;45.634;9.420;2024-03-02T04:36:36;7.35;;;4.22;;
53269;SDS011;39159;45.634;9.420;2024-03-02T04:39:02;6.07;;;4.22;;
53269;SDS011;39159;45.634;9.420;2024-03-02T04:41:27;6.57;;;4.53;;
53269;SDS011;39159;45.634;9.420;2024-03-02T04:43:52;7.85;;;4.25;;
53269;SDS011;39159;45.634;9.420;2024-03-02T04:46:18;7.00;;;3.97;;
53269;SDS011;39159;45.634;9.420;2024-03-02T04:48:43;6.22;;;4.28;;
53269;SDS011;39159;45.634;9.420;2024-03-02T04:51:09;5.57;;;3.83;;
53269;SDS011;39159;45.634;9.420;2024-03-02T04:53:34;6.20;;;4.85;;
53269;SDS011;39159;45.634;9.420;2024-03-02T04:56:00;9.50;;;4.90;;
53269;SDS011;39159;45.634;9.420;2024-03-02T04:58:44;7.35;;;4.82;;
53269;SDS011;39159;45.634;9.420;2024-03-02T05:01:09;7.35;;;4.75;;
53269;SDS011;39159;45.634;9.420;2024-03-02T05:03:35;7.85;;;4.68;;
53269;SDS011;39159;45.634;9.420;2024-03-02T05:06:01;7.68;;;4.95;;
53269;SDS011;39159;45.634;9.420;2024-03-02T05:08:26;6.78;;;5.20;;
53269;SDS011;39159;45.634;9.420;2024-03-02T05:10:51;9.85;;;6.10;;
53269;SDS011;39159;45.634;9.420;2024-03-02T05:13:17;7.88;;;5.13;;
53269;SDS011;39159;45.634;9.420;2024-03-02T05:15:42;10.10;;;6.15;;
53269;SDS011;39159;45.634;9.420;2024-03-02T05:18:08;8.93;;;5.55;;
53269;SDS011;39159;45.634;9.420;2024-03-02T05:20:33;9.75;;;5.55;;
53269;SDS011;39159;45.634;9.420;2024-03-02T05:22:59;8.43;;;5.72;;
53269;SDS011;39159;45.634;9.420;2024-03-02T05:25:25;7.38;;;4.97;;
53269;SDS011;39159;45.634;9.420;2024-03-02T05:27:50;9.10;;;5.05;;
53269;SDS011;39159;45.634;9.420;2024-03-02T05:30:15;8.82;;;5.90;;
53269;SDS011;39159;45.634;9.420;2024-03-02T05:32:41;8.95;;;5.25;;
53269;SDS011;39159;45.634;9.420;2024-03-02T05:35:06;7.97;;;5.43;;
53269;SDS011;39159;45.634;9.420;2024-03-02T05:37:33;8.48;;;5.53;;
53269;SDS011;39159;45.634;9.420;2024-03-02T05:39:58;7.88;;;5.30;;
53269;SDS011;39159;45.634;9.420;2024-03-02T05:42:24;8.50;;;6.18;;
53269;SDS011;39159;45.634;9.420;2024-03-02T05:44:49;8.73;;;5.97;;
53269;SDS011;39159;45.634;9.420;2024-03-02T05:47:15;8.50;;;5.65;;
53269;SDS011;39159;45.634;9.420;2024-03-02T05:49:40;9.52;;;5.93;;
53269;SDS011;39159;45.634;9.420;2024-03-02T05:52:06;9.55;;;6.72;;
53269;SDS011;39159;45.634;9.420;2024-03-02T05:54:31;11.15;;;6.35;;
53269;SDS011;39159;45.634;9.420;2024-03-02T05:56:57;10.13;;;6.22;;
53269;SDS011;39159;45.634;9.420;2024-03-02T05:59:40;9.50;;;6.50;;
53269;SDS011;39159;45.634;9.420;2024-03-02T06:02:06;9.32;;;6.18;;
53269;SDS011;39159;45.634;9.420;2024-03-02T06:04:31;9.23;;;5.95;;
53269;SDS011;39159;45.634;9.420;2024-03-02T06:06:56;12.48;;;7.82;;
53269;SDS011;39159;45.634;9.420;2024-03-02T06:09:22;12.27;;;7.07;;
53269;SDS011;39159;45.634;9.420;2024-03-02T06:11:49;15.93;;;8.75;;
53269;SDS011;39159;45.634;9.420;2024-03-02T06:14:15;21.77;;;10.60;;
53269;SDS011;39159;45.634;9.420;2024-03-02T06:16:40;14.82;;;8.38;;
53269;SDS011;39159;45.634;9.420;2024-03-02T06:19:05;13.05;;;8.73;;
53269;SDS011;39159;45.634;9.420;2024-03-02T06:21:32;17.88;;;9.95;;
53269;SDS011;39159;45.634;9.420;2024-03-02T06:23:57;14.68;;;10.00;;
53269;SDS011;39159;45.634;9.420;2024-03-02T06:26:23;13.60;;;9.75;;
53269;SDS011;39159;45.634;9.420;2024-03-02T06:28:48;11.82;;;8.15;;
53269;SDS011;39159;45.634;9.420;2024-03-02T06:31:13;9.70;;;7.20;;
53269;SDS011;39159;45.634;9.420;2024-03-02T06:33:39;10.20;;;7.63;;
53269;SDS011;39159;45.634;9.420;2024-03-02T06:36:05;10.63;;;7.05;;
53269;SDS011;39159;45.634;9.420;2024-03-02T06:38:33;9.75;;;6.55;;
53269;SDS011;39159;45.634;9.420;2024-03-02T06:40:59;10.85;;;6.78;;
53269;SDS011;39159;45.634;9.420;2024-03-02T06:43:24;11.43;;;7.82;;
53269;SDS011;39159;45.634;9.420;2024-03-02T06:45:50;8.68;;;6.63;;
53269;SDS011;39159;45.634;9.420;2024-03-02T06:48:16;12.15;;;6.20;;
53269;SDS011;39159;45.634;9.420;2024-03-02T06:50:46;7.75;;;5.93;;
53269;SDS011;39159;45.634;9.420;2024-03-02T06:53:14;10.07;;;6.70;;
53269;SDS011;39159;45.634;9.420;2024-03-02T06:55:42;8.82;;;6.28;;
53269;SDS011;39159;45.634;9.420;2024-03-02T06:58:11;12.18;;;7.97;;
53269;SDS011;39159;45.634;9.420;2024-03-02T07:00:37;10.73;;;7.30;;
53269;SDS011;39159;45.634;9.420;2024-03-02T07:03:03;11.13;;;7.82;;
53269;SDS011;39159;45.634;9.420;2024-03-02T07:05:28;11.68;;;7.95;;
53269;SDS011;39159;45.634;9.420;2024-03-02T07:07:54;10.63;;;8.07;;
53269;SDS011;39159;45.634;9.420;2024-03-02T07:10:19;12.35;;;7.53;;
53269;SDS011;39159;45.634;9.420;2024-03-02T07:12:45;13.52;;;8.82;;
53269;SDS011;39159;45.634;9.420;2024-03-02T07:15:10;12.60;;;8.23;;
53269;SDS011;39159;45.634;9.420;2024-03-02T07:17:56;14.65;;;8.30;;
53269;SDS011;39159;45.634;9.420;2024-03-02T07:20:21;12.25;;;8.10;;
53269;SDS011;39159;45.634;9.420;2024-03-02T07:22:47;16.63;;;8.73;;
53269;SDS011;39159;45.634;9.420;2024-03-02T07:25:12;13.57;;;8.05;;
53269;SDS011;39159;45.634;9.420;2024-03-02T07:27:38;11.57;;;8.13;;
53269;SDS011;39159;45.634;9.420;2024-03-02T07:30:04;13.30;;;8.80;;
53269;SDS011;39159;45.634;9.420;2024-03-02T07:32:30;14.80;;;9.20;;
53269;SDS011;39159;45.634;9.420;2024-03-02T07:34:55;16.40;;;9.57;;
53269;SDS011;39159;45.634;9.420;2024-03-02T07:37:21;14.15;;;8.90;;
53269;SDS011;39159;45.634;9.420;2024-03-02T07:39:50;14.32;;;9.20;;
53269;SDS011;39159;45.634;9.420;2024-03-02T07:42:16;15.35;;;9.07;;
53269;SDS011;39159;45.634;9.420;2024-03-02T07:44:43;12.75;;;8.45;;
53269;SDS011;39159;45.634;9.420;2024-03-02T07:47:09;15.15;;;8.60;;
53269;SDS011;39159;45.634;9.420;2024-03-02T07:49:34;14.75;;;9.63;;
53269;SDS011;39159;45.634;9.420;2024-03-02T07:52:00;13.73;;;8.93;;
53269;SDS011;39159;45.634;9.420;2024-03-02T07:54:25;10.63;;;7.38;;
53269;SDS011;39159;45.634;9.420;2024-03-02T07:56:51;13.57;;;8.20;;
53269;SDS011;39159;45.634;9.420;2024-03-02T07:59:16;13.55;;;9.13;;
53269;SDS011;39159;45.634;9.420;2024-03-02T08:01:41;11.57;;;7.22;;
53269;SDS011;39159;45.634;9.420;2024-03-02T08:04:07;11.85;;;8.43;;
53269;SDS011;39159;45.634;9.420;2024-03-02T08:06:33;13.02;;;7.55;;
53269;SDS011;39159;45.634;9.420;2024-03-02T08:08:58;11.88;;;7.50;;
53269;SDS011;39159;45.634;9.420;2024-03-02T08:11:25;10.43;;;7.05;;
53269;SDS011;39159;45.634;9.420;2024-03-02T08:13:52;13.30;;;7.10;;
53269;SDS011;39159;45.634;9.420;2024-03-02T08:16:19;14.32;;;6.95;;
53269;SDS011;39159;45.634;9.420;2024-03-02T08:18:47;12.50;;;6.88;;
53269;SDS011;39159;45.634;9.420;2024-03-02T08:21:13;13.75;;;7.00;;
53269;SDS011;39159;45.634;9.420;2024-03-02T08:23:38;9.70;;;6.30;;
53269;SDS011;39159;45.634;9.420;2024-03-02T08:26:06;10.48;;;6.32;;
53269;SDS011;39159;45.634;9.420;2024-03-02T08:28:31;10.88;;;6.00;;
53269;SDS011;39159;45.634;9.420;2024-03-02T08:30:58;10.32;;;5.80;;
53269;SDS011;39159;45.634;9.420;2024-03-02T08:33:23;13.70;;;6.38;;
53269;SDS011;39159;45.634;9.420;2024-03-02T08:35:48;10.63;;;5.82;;
53269;SDS011;39159;45.634;9.420;2024-03-02T08:38:14;11.25;;;6.40;;
53269;SDS011;39159;45.634;9.420;2024-03-02T08:40:39;10.48;;;5.88;;
53269;SDS011;39159;45.634;9.420;2024-03-02T08:43:05;12.95;;;6.78;;
53269;SDS011;39159;45.634;9.420;2024-03-02T08:45:30;12.00;;;6.68;;
53269;SDS011;39159;45.634;9.420;2024-03-02T08:47:55;17.00;;;6.57;;
53269;SDS011;39159;45.634;9.420;2024-03-02T08:50:21;10.50;;;5.85;;
53269;SDS011;39159;45.634;9.420;2024-03-02T08:52:46;20.40;;;7.05;;
53269;SDS011;39159;45.634;9.420;2024-03-02T08:55:12;13.15;;;6.43;;
53269;SDS011;39159;45.634;9.420;2024-03-02T08:57:37;12.68;;;7.00;;
53269;SDS011;39159;45.634;9.420;2024-03-02T09:00:03;14.88;;;6.68;;
53269;SDS011;39159;45.634;9.420;2024-03-02T09:02:30;10.15;;;6.13;;
53269;SDS011;39159;45.634;9.420;2024-03-02T09:04:56;14.70;;;6.10;;
53269;SDS011;39159;45.634;9.420;2024-03-02T09:07:21;12.95;;;6.63;;
53269;SDS011;39159;45.634;9.420;2024-03-02T09:09:47;13.02;;;5.93;;
53269;SDS011;39159;45.634;9.420;2024-03-02T09:12:12;10.90;;;5.40;;
53269;SDS011;39159;45.634;9.420;2024-03-02T09:14:37;16.75;;;7.45;;
53269;SDS011;39159;45.634;9.420;2024-03-02T09:17:03;10.20;;;6.07;;
53269;SDS011;39159;45.634;9.420;2024-03-02T09:19:29;12.05;;;5.90;;
53269;SDS011;39159;45.634;9.420;2024-03-02T09:21:54;14.25;;;6.47;;
53269;SDS011;39159;45.634;9.420;2024-03-02T09:24:21;10.40;;;6.47;;
53269;SDS011;39159;45.634;9.420;2024-03-02T09:26:46;16.02;;;7.03;;
53269;SDS011;39159;45.634;9.420;2024-03-02T09:29:12;15.98;;;6.97;;
53269;SDS011;39159;45.634;9.420;2024-03-02T09:31:41;14.50;;;7.20;;
53269;SDS011;39159;45.634;9.420;2024-03-02T09:34:07;12.52;;;7.22;;
53269;SDS011;39159;45.634;9.420;2024-03-02T09:36:32;14.02;;;7.60;;
53269;SDS011;39159;45.634;9.420;2024-03-02T09:38:58;18.63;;;8.65;;
53269;SDS011;39159;45.634;9.420;2024-03-02T09:41:23;9.82;;;7.63;;
53269;SDS011;39159;45.634;9.420;2024-03-02T09:43:49;21.25;;;7.93;;
53269;SDS011;39159;45.634;9.420;2024-03-02T09:46:15;15.15;;;7.07;;
53269;SDS011;39159;45.634;9.420;2024-03-02T09:48:41;14.05;;;8.20;;
53269;SDS011;39159;45.634;9.420;2024-03-02T09:51:06;14.65;;;7.53;;
53269;SDS011;39159;45.634;9.420;2024-03-02T09:53:34;14.40;;;7.45;;
53269;SDS011;39159;45.634;9.420;2024-03-02T09:55:59;15.18;;;7.70;;
53269;SDS011;39159;45.634;9.420;2024-03-02T09:58:25;12.68;;;7.78;;
53269;SDS011;39159;45.634;9.420;2024-03-02T10:00:51;13.82;;;7.15;;
53269;SDS011;39159;45.634;9.420;2024-03-02T10:03:16;13.52;;;8.20;;
53269;SDS011;39159;45.634;9.420;2024-03-02T10:05:44;15.32;;;8.40;;
53269;SDS011;39159;45.634;9.420;2024-03-02T10:08:09;17.05;;;9.13;;
53269;SDS011;39159;45.634;9.420;2024-03-02T10:10:38;16.30;;;9.52;;
53269;SDS011;39159;45.634;9.420;2024-03-02T10:13:11;15.73;;;8.98;;
53269;SDS011;39159;45.634;9.420;2024-03-02T10:15:38;18.95;;;9.57;;
53269;SDS011;39159;45.634;9.420;2024-03-02T10:18:11;17.88;;;9.65;;
53269;SDS011;39159;45.634;9.420;2024-03-02T10:20:37;13.30;;;8.95;;
53269;SDS011;39159;45.634;9.420;2024-03-02T10:23:16;16.02;;;9.10;;
53269;SDS011;39159;45.634;9.420;2024-03-02T10:25:42;17.13;;;9.52;;
53269;SDS011;39159;45.634;9.420;2024-03-02T10:28:09;14.07;;;9.18;;
53269;SDS011;39159;45.634;9.420;2024-03-02T10:30:34;19.40;;;9.38;;
53269;SDS011;39159;45.634;9.420;2024-03-02T10:33:03;15.25;;;8.65;;
53269;SDS011;39159;45.634;9.420;2024-03-02T10:35:31;17.75;;;9.02;;
53269;SDS011;39159;45.634;9.420;2024-03-02T10:37:58;14.80;;;8.40;;
53269;SDS011;39159;45.634;9.420;2024-03-02T10:40:24;15.70;;;7.82;;
53269;SDS011;39159;45.634;9.420;2024-03-02T10:42:50;11.98;;;7.95;;
53269;SDS011;39159;45.634;9.420;2024-03-02T10:45:21;11.05;;;7.40;;
53269;SDS011;39159;45.634;9.420;2024-03-02T10:47:49;9.55;;;6.68;;
53269;SDS011;39159;45.634;9.420;2024-03-02T10:50:15;14.55;;;6.32;;
53269;SDS011;39159;45.634;9.420;2024-03-02T10:52:41;15.27;;;6.57;;
53269;SDS011;39159;45.634;9.420;2024-03-02T10:55:08;12.50;;;6.47;;
53269;SDS011;39159;45.634;9.420;2024-03-02T10:57:41;12.15;;;6.03;;
53269;SDS011;39159;45.634;9.420;2024-03-02T11:00:11;12.38;;;6.50;;
53269;SDS011;39159;45.634;9.420;2024-03-02T11:02:46;8.43;;;6.07;;
53269;SDS011;39159;45.634;9.420;2024-03-02T11:05:19;10.93;;;6.53;;
53269;SDS011;39159;45.634;9.420;2024-03-02T11:08:02;12.32;;;6.93;;
53269;SDS011;39159;45.634;9.420;2024-03-02T11:10:33;10.48;;;6.10;;
53269;SDS011;39159;45.634;9.420;2024-03-02T11:13:02;15.35;;;6.82;;
53269;SDS011;39159;45.634;9.420;2024-03-02T11:15:34;15.45;;;7.32;;
53269;SDS011;39159;45.634;9.420;2024-03-02T11:18:01;9.27;;;6.53;;
53269;SDS011;39159;45.634;9.420;2024-03-02T11:20:30;16.92;;;6.88;;
53269;SDS011;39159;45.634;9.420;2024-03-02T11:22:56;11.18;;;6.60;;
53269;SDS011;39159;45.634;9.420;2024-03-02T11:25:22;11.90;;;6.18;;
53269;SDS011;39159;45.634;9.420;2024-03-02T11:33:01;16.50;;;6.20;;
53269;SDS011;39159;45.634;9.420;2024-03-02T11:35:42;10.75;;;6.18;;
53269;SDS011;39159;45.634;9.420;2024-03-02T11:38:11;13.20;;;6.15;;
53269;SDS011;39159;45.634;9.420;2024-03-02T11:40:38;9.45;;;6.00;;
53269;SDS011;39159;45.634;9.420;2024-03-02T11:43:04;10.57;;;6.45;;
53269;SDS011;39159;45.634;9.420;2024-03-02T11:45:30;10.65;;;6.22;;
53269;SDS011;39159;45.634;9.420;2024-03-02T11:47:59;16.38;;;6.25;;
53269;SDS011;39159;45.634;9.420;2024-03-02T11:51:07;9.68;;;5.95;;
53269;SDS011;39159;45.634;9.420;2024-03-02T11:53:17;12.80;;;6.60;;
53269;SDS011;39159;45.634;9.420;2024-03-02T11:55:44;11.80;;;6.50;;
53269;SDS011;39159;45.634;9.420;2024-03-02T11:58:13;10.30;;;6.50;;
53269;SDS011;39159;45.634;9.420;2024-03-02T12:00:42;13.02;;;6.18;;
53269;SDS011;39159;45.634;9.420;2024-03-02T12:03:08;9.40;;;5.65;;
53269;SDS011;39159;45.634;9.420;2024-03-02T12:05:37;11.80;;;5.80;;
53269;SDS011;39159;45.634;9.420;2024-03-02T12:08:03;11.32;;;6.15;;
53269;SDS011;39159;45.634;9.420;2024-03-02T12:10:31;10.40;;;5.50;;
53269;SDS011;39159;45.634;9.420;2024-03-02T12:13:00;7.85;;;4.88;;
53269;SDS011;39159;45.634;9.420;2024-03-02T12:15:32;9.02;;;5.30;;
53269;SDS011;39159;45.634;9.420;2024-03-02T12:17:59;9.52;;;6.20;;
53269;SDS011;39159;45.634;9.420;2024-03-02T12:20:26;9.77;;;5.45;;
53269;SDS011;39159;45.634;9.420;2024-03-02T12:22:54;8.15;;;4.95;;
53269;SDS011;39159;45.634;9.420;2024-03-02T12:25:21;9.23;;;5.22;;
53269;SDS011;39159;45.634;9.420;2024-03-02T12:27:49;8.65;;;4.90;;
53269;SDS011;39159;45.634;9.420;2024-03-02T12:30:16;12.80;;;5.25;;
53269;SDS011;39159;45.634;9.420;2024-03-02T12:32:42;6.68;;;5.00;;
53269;SDS011;39159;45.634;9.420;2024-03-02T12:35:08;6.72;;;4.38;;
53269;SDS011;39159;45.634;9.420;2024-03-02T12:37:41;10.90;;;4.47;;
53269;SDS011;39159;45.634;9.420;2024-03-02T12:40:09;6.45;;;4.50;;
53269;SDS011;39159;45.634;9.420;2024-03-02T12:42:36;7.85;;;4.40;;
53269;SDS011;39159;45.634;9.420;2024-03-02T12:45:01;6.18;;;3.80;;
53269;SDS011;39159;45.634;9.420;2024-03-02T12:47:26;5.63;;;3.90;;
53269;SDS011;39159;45.634;9.420;2024-03-02T12:49:52;5.38;;;4.03;;
53269;SDS011;39159;45.634;9.420;2024-03-02T12:52:17;6.25;;;3.72;;
53269;SDS011;39159;45.634;9.420;2024-03-02T12:54:43;7.80;;;4.32;;
53269;SDS011;39159;45.634;9.420;2024-03-02T12:57:09;6.72;;;4.30;;
53269;SDS011;39159;45.634;9.420;2024-03-02T12:59:34;5.20;;;3.72;;
53269;SDS011;39159;45.634;9.420;2024-03-02T13:01:59;7.38;;;4.25;;
53269;SDS011;39159;45.634;9.420;2024-03-02T13:04:27;8.25;;;4.95;;
53269;SDS011;39159;45.634;9.420;2024-03-02T13:06:53;6.68;;;4.57;;
53269;SDS011;39159;45.634;9.420;2024-03-02T13:09:22;8.40;;;5.32;;
53269;SDS011;39159;45.634;9.420;2024-03-02T13:11:48;10.10;;;6.13;;
53269;SDS011;39159;45.634;9.420;2024-03-02T13:14:14;10.02;;;6.55;;
53269;SDS011;39159;45.634;9.420;2024-03-02T13:16:40;10.55;;;6.68;;
53269;SDS011;39159;45.634;9.420;2024-03-02T13:19:10;9.20;;;6.45;;
53269;SDS011;39159;45.634;9.420;2024-03-02T13:21:36;14.88;;;6.20;;
53269;SDS011;39159;45.634;9.420;2024-03-02T13:24:01;9.20;;;6.47;;
53269;SDS011;39159;45.634;9.420;2024-03-02T13:26:28;8.95;;;4.90;;
53269;SDS011;39159;45.634;9.420;2024-03-02T13:28:53;7.78;;;5.80;;
53269;SDS011;39159;45.634;9.420;2024-03-02T13:31:19;7.07;;;5.97;;
53269;SDS011;39159;45.634;9.420;2024-03-02T13:33:45;7.95;;;5.53;;
53269;SDS011;39159;45.634;9.420;2024-03-02T13:36:11;8.85;;;5.20;;
53269;SDS011;39159;45.634;9.420;2024-03-02T13:38:37;9.25;;;5.80;;
53269;SDS011;39159;45.634;9.420;2024-03-02T13:41:02;8.18;;;5.28;;
53269;SDS011;39159;45.634;9.420;2024-03-02T13:43:27;8.00;;;5.85;;
53269;SDS011;39159;45.634;9.420;2024-03-02T13:45:56;9.02;;;6.20;;
53269;SDS011;39159;45.634;9.420;2024-03-02T13:48:23;10.48;;;6.65;;
53269;SDS011;39159;45.634;9.420;2024-03-02T13:50:50;10.73;;;7.15;;
53269;SDS011;39159;45.634;9.420;2024-03-02T13:53:17;9.25;;;7.32;;
53269;SDS011;39159;45.634;9.420;2024-03-02T13:55:42;9.77;;;6.70;;
53269;SDS011;39159;45.634;9.420;2024-03-02T13:58:08;13.57;;;8.07;;
53269;SDS011;39159;45.634;9.420;2024-03-02T14:00:34;12.48;;;8.30;;
53269;SDS011;39159;45.634;9.420;2024-03-02T14:03:00;11.82;;;8.00;;
53269;SDS011;39159;45.634;9.420;2024-03-02T14:05:25;10.38;;;7.95;;
53269;SDS011;39159;45.634;9.420;2024-03-02T14:07:50;11.52;;;7.95;;
53269;SDS011;39159;45.634;9.420;2024-03-02T14:10:16;11.93;;;8.27;;
53269;SDS011;39159;45.634;9.420;2024-03-02T14:12:42;12.50;;;8.50;;
53269;SDS011;39159;45.634;9.420;2024-03-02T14:15:08;10.68;;;8.50;;
53269;SDS011;39159;45.634;9.420;2024-03-02T14:17:33;12.98;;;8.60;;
53269;SDS011;39159;45.634;9.420;2024-03-02T14:19:59;20.38;;;10.45;;
53269;SDS011;39159;45.634;9.420;2024-03-02T14:22:25;12.85;;;8.77;;
53269;SDS011;39159;45.634;9.420;2024-03-02T14:24:50;14.43;;;8.60;;
53269;SDS011;39159;45.634;9.420;2024-03-02T14:27:16;12.90;;;7.70;;
53269;SDS011;39159;45.634;9.420;2024-03-02T14:29:44;11.05;;;7.65;;
53269;SDS011;39159;45.634;9.420;2024-03-02T14:32:10;11.07;;;7.43;;
53269;SDS011;39159;45.634;9.420;2024-03-02T14:34:35;12.82;;;7.63;;
53269;SDS011;39159;45.634;9.420;2024-03-02T14:37:00;9.65;;;7.28;;
53269;SDS011;39159;45.634;9.420;2024-03-02T14:39:26;9.68;;;7.05;;
53269;SDS011;39159;45.634;9.420;2024-03-02T14:41:51;12.30;;;7.28;;
53269;SDS011;39159;45.634;9.420;2024-03-02T14:44:17;9.65;;;6.32;;
53269;SDS011;39159;45.634;9.420;2024-03-02T14:46:42;13.35;;;6.80;;